sensor_id;sensor_type;location;lat;lon;timestamp;pressure;altitude;pressure_sealevel;temperature;humidity
8039;BME280;4062;49.844;8.120;2023-03-21T00:01:55;99541.00;;;14.04;54.99
8039;BME280;4062;49.844;8.120;2023-03-21T00:03:57;99545.47;;;14.04;54.73
8039;BME280;4062;49.844;8.120;2023-03-21T00:06:04;99541.00;;;14.04;54.77
8039;BME280;4062;49.844;8.120;2023-03-21T00:08:05;99538.34;;;14.04;54.83
8039;BME280;4062;49.844;8.120;2023-03-21T00:10:07;99538.34;;;14.04;54.94
8039;BME280;4062;49.844;8.120;2023-03-21T00:12:09;99538.34;;;14.04;54.76
8039;BME280;4062;49.844;8.120;2023-03-21T00:14:12;99533.91;;;14.05;54.88
8039;BME280;4062;49.844;8.120;2023-03-21T00:16:19;99530.38;;;14.04;54.81
8039;BME280;4062;49.844;8.120;2023-03-21T00:18:21;99530.38;;;14.04;54.77
8039;BME280;4062;49.844;8.120;2023-03-21T00:20:23;99525.06;;;14.04;54.78
8039;BME280;4062;49.844;8.120;2023-03-21T00:22:25;99524.22;;;14.04;54.79
8039;BME280;4062;49.844;8.120;2023-03-21T00:24:27;99520.69;;;14.03;54.88
8039;BME280;4062;49.844;8.120;2023-03-21T00:26:29;99520.69;;;14.03;54.88
8039;BME280;4062;49.844;8.120;2023-03-21T00:28:31;99524.22;;;14.04;54.83
8039;BME280;4062;49.844;8.120;2023-03-21T00:30:33;99520.69;;;14.03;54.95
8039;BME280;4062;49.844;8.120;2023-03-21T00:32:34;99518.03;;;14.03;54.71
8039;BME280;4062;49.844;8.120;2023-03-21T00:34:36;99515.38;;;14.03;54.84
8039;BME280;4062;49.844;8.120;2023-03-21T00:36:38;99522.41;;;14.04;54.78
8039;BME280;4062;49.844;8.120;2023-03-21T00:38:41;99516.28;;;14.02;54.78
8039;BME280;4062;49.844;8.120;2023-03-21T00:40:43;99509.19;;;14.03;54.89
8039;BME280;4062;49.844;8.120;2023-03-21T00:42:44;99510.06;;;14.03;54.77
8039;BME280;4062;49.844;8.120;2023-03-21T00:44:45;99517.09;;;14.04;54.74
8039;BME280;4062;49.844;8.120;2023-03-21T00:46:47;99515.38;;;14.03;54.82
8039;BME280;4062;49.844;8.120;2023-03-21T00:48:48;99511.78;;;14.04;54.88
8039;BME280;4062;49.844;8.120;2023-03-21T00:50:52;99504.75;;;14.03;54.96
8039;BME280;4062;49.844;8.120;2023-03-21T00:52:56;99502.09;;;14.03;54.72
8039;BME280;4062;49.844;8.120;2023-03-21T00:54:59;99504.75;;;14.03;54.73
8039;BME280;4062;49.844;8.120;2023-03-21T00:57:03;99496.78;;;14.03;54.82
8039;BME280;4062;49.844;8.120;2023-03-21T00:59:05;99502.97;;;14.04;54.89
8039;BME280;4062;49.844;8.120;2023-03-21T01:01:06;99503.81;;;14.04;54.96
8039;BME280;4062;49.844;8.120;2023-03-21T01:03:12;99499.44;;;14.03;54.86
8039;BME280;4062;49.844;8.120;2023-03-21T01:05:14;99501.22;;;14.03;54.90
8039;BME280;4062;49.844;8.120;2023-03-21T01:07:36;99492.38;;;14.02;54.70
8039;BME280;4062;49.844;8.120;2023-03-21T01:09:40;99493.19;;;14.04;54.86
8039;BME280;4062;49.844;8.120;2023-03-21T01:11:43;99490.59;;;14.03;54.76
8039;BME280;4062;49.844;8.120;2023-03-21T01:13:46;99483.47;;;14.03;54.76
8039;BME280;4062;49.844;8.120;2023-03-21T01:15:54;99494.09;;;14.03;54.86
8039;BME280;4062;49.844;8.120;2023-03-21T01:17:56;99487.06;;;14.02;54.90
8039;BME280;4062;49.844;8.120;2023-03-21T01:19:57;99482.63;;;14.03;54.82
8039;BME280;4062;49.844;8.120;2023-03-21T01:21:59;99489.72;;;14.02;54.88
8039;BME280;4062;49.844;8.120;2023-03-21T01:24:00;99484.41;;;14.02;54.81
8039;BME280;4062;49.844;8.120;2023-03-21T01:26:02;99482.56;;;14.04;54.83
8039;BME280;4062;49.844;8.120;2023-03-21T01:28:04;99480.81;;;14.03;54.92
8039;BME280;4062;49.844;8.120;2023-03-21T01:30:06;99476.44;;;14.02;54.97
8039;BME280;4062;49.844;8.120;2023-03-21T01:32:08;99471.13;;;14.02;54.97
8039;BME280;4062;49.844;8.120;2023-03-21T01:34:11;99472.00;;;14.03;54.80
8039;BME280;4062;49.844;8.120;2023-03-21T01:36:24;99475.50;;;14.03;54.84
8039;BME280;4062;49.844;8.120;2023-03-21T01:38:30;99472.00;;;14.03;54.90
8039;BME280;4062;49.844;8.120;2023-03-21T01:40:31;99478.16;;;14.03;54.91
8039;BME280;4062;49.844;8.120;2023-03-21T01:42:46;99482.63;;;14.03;54.92
8039;BME280;4062;49.844;8.120;2023-03-21T01:47:31;99465.81;;;14.02;54.80
8039;BME280;4062;49.844;8.120;2023-03-21T01:49:57;99470.19;;;14.03;54.95
8039;BME280;4062;49.844;8.120;2023-03-21T01:52:06;99461.38;;;14.03;54.90
8039;BME280;4062;49.844;8.120;2023-03-21T01:54:14;99461.38;;;14.03;54.89
8039;BME280;4062;49.844;8.120;2023-03-21T01:56:30;99462.31;;;14.02;54.92
8039;BME280;4062;49.844;8.120;2023-03-21T01:58:40;99469.34;;;14.03;54.94
8039;BME280;4062;49.844;8.120;2023-03-21T02:01:00;99465.81;;;14.02;54.93
8039;BME280;4062;49.844;8.120;2023-03-21T02:03:13;99460.50;;;14.02;54.86
8039;BME280;4062;49.844;8.120;2023-03-21T02:05:38;99458.72;;;14.03;54.83
8039;BME280;4062;49.844;8.120;2023-03-21T02:07:44;99462.22;;;14.03;54.90
8039;BME280;4062;49.844;8.120;2023-03-21T02:09:52;99460.50;;;14.02;54.93
8039;BME280;4062;49.844;8.120;2023-03-21T02:11:58;99463.16;;;14.02;54.94
8039;BME280;4062;49.844;8.120;2023-03-21T02:14:04;99445.47;;;14.01;54.93
8039;BME280;4062;49.844;8.120;2023-03-21T02:16:17;99454.25;;;14.03;54.88
8039;BME280;4062;49.844;8.120;2023-03-21T02:18:31;99443.69;;;14.02;54.80
8039;BME280;4062;49.844;8.120;2023-03-21T02:21:03;99444.56;;;14.02;54.98
8039;BME280;4062;49.844;8.120;2023-03-21T02:29:16;99436.59;;;14.02;54.86
8039;BME280;4062;49.844;8.120;2023-03-21T02:31:23;99437.50;;;14.01;54.95
8039;BME280;4062;49.844;8.120;2023-03-21T02:41:02;99425.97;;;14.02;54.97
8039;BME280;4062;49.844;8.120;2023-03-21T02:43:34;99426.88;;;14.01;54.97
8039;BME280;4062;49.844;8.120;2023-03-21T02:45:48;99422.44;;;14.02;54.87
8039;BME280;4062;49.844;8.120;2023-03-21T02:48:10;99422.44;;;14.02;54.90
8039;BME280;4062;49.844;8.120;2023-03-21T02:50:22;99424.22;;;14.01;54.80
8039;BME280;4062;49.844;8.120;2023-03-21T02:52:31;99425.97;;;14.02;54.87
8039;BME280;4062;49.844;8.120;2023-03-21T02:54:38;99421.53;;;14.03;54.79
8039;BME280;4062;49.844;8.120;2023-03-21T02:56:42;99418.88;;;14.03;54.87
8039;BME280;4062;49.844;8.120;2023-03-21T02:58:53;99415.34;;;14.02;54.94
8039;BME280;4062;49.844;8.120;2023-03-21T03:00:56;99411.81;;;14.02;55.04
8039;BME280;4062;49.844;8.120;2023-03-21T03:03:06;99416.25;;;14.01;54.92
8039;BME280;4062;49.844;8.120;2023-03-21T03:05:28;99411.81;;;14.02;54.90
8039;BME280;4062;49.844;8.120;2023-03-21T03:12:41;99404.72;;;14.02;54.85
8039;BME280;4062;49.844;8.120;2023-03-21T03:15:15;99396.75;;;14.02;54.79
8039;BME280;4062;49.844;8.120;2023-03-21T03:19:51;99401.19;;;14.02;54.98
8039;BME280;4062;49.844;8.120;2023-03-21T03:22:12;99403.84;;;14.02;54.84
8039;BME280;4062;49.844;8.120;2023-03-21T03:28:52;99390.56;;;14.02;54.93
8039;BME280;4062;49.844;8.120;2023-03-21T03:31:02;99394.16;;;14.01;54.98
8039;BME280;4062;49.844;8.120;2023-03-21T03:33:28;99389.69;;;14.01;55.00
8039;BME280;4062;49.844;8.120;2023-03-21T03:35:32;99389.69;;;14.01;54.95
8039;BME280;4062;49.844;8.120;2023-03-21T03:37:35;99392.34;;;14.01;55.04
8039;BME280;4062;49.844;8.120;2023-03-21T03:42:28;99387.03;;;14.01;54.88
8039;BME280;4062;49.844;8.120;2023-03-21T03:44:44;99389.69;;;14.01;54.85
8039;BME280;4062;49.844;8.120;2023-03-21T03:46:59;99391.44;;;14.02;55.01
8039;BME280;4062;49.844;8.120;2023-03-21T03:49:12;99394.09;;;14.02;54.87
8039;BME280;4062;49.844;8.120;2023-03-21T03:51:24;99389.69;;;14.01;54.97
8039;BME280;4062;49.844;8.120;2023-03-21T03:54:05;99390.56;;;14.02;54.90
8039;BME280;4062;49.844;8.120;2023-03-21T03:56:13;99405.63;;;14.01;54.93
8039;BME280;4062;49.844;8.120;2023-03-21T03:58:19;99395.00;;;14.01;55.04
8039;BME280;4062;49.844;8.120;2023-03-21T04:00:27;99401.19;;;14.02;54.93
8039;BME280;4062;49.844;8.120;2023-03-21T04:02:34;99393.28;;;14.00;54.92
8039;BME280;4062;49.844;8.120;2023-03-21T04:04:47;99392.34;;;14.01;54.88
8039;BME280;4062;49.844;8.120;2023-03-21T04:06:57;99389.69;;;14.01;55.00
8039;BME280;4062;49.844;8.120;2023-03-21T04:09:02;99402.97;;;14.01;54.99
8039;BME280;4062;49.844;8.120;2023-03-21T04:11:06;99388.84;;;14.01;55.04
8039;BME280;4062;49.844;8.120;2023-03-21T04:13:17;99394.16;;;14.01;54.97
8039;BME280;4062;49.844;8.120;2023-03-21T04:15:23;99405.63;;;14.01;54.98
8039;BME280;4062;49.844;8.120;2023-03-21T04:17:33;99397.66;;;14.01;54.92
8039;BME280;4062;49.844;8.120;2023-03-21T04:19:35;99402.13;;;14.01;54.95
8039;BME280;4062;49.844;8.120;2023-03-21T04:21:36;99400.31;;;14.01;55.05
8039;BME280;4062;49.844;8.120;2023-03-21T04:23:42;99401.25;;;14.00;54.91
8039;BME280;4062;49.844;8.120;2023-03-21T04:25:46;99400.31;;;14.01;54.99
8039;BME280;4062;49.844;8.120;2023-03-21T04:27:50;99404.78;;;14.01;55.06
8039;BME280;4062;49.844;8.120;2023-03-21T04:30:11;99400.31;;;14.01;54.93
8039;BME280;4062;49.844;8.120;2023-03-21T04:32:27;99405.63;;;14.01;54.88
8039;BME280;4062;49.844;8.120;2023-03-21T04:34:38;99407.44;;;14.01;55.05
8039;BME280;4062;49.844;8.120;2023-03-21T04:36:41;99395.88;;;14.02;55.05
8039;BME280;4062;49.844;8.120;2023-03-21T04:38:53;99400.31;;;14.01;55.02
8039;BME280;4062;49.844;8.120;2023-03-21T04:40:55;99398.59;;;14.00;54.98
8039;BME280;4062;49.844;8.120;2023-03-21T04:42:57;99394.16;;;14.01;55.08
8039;BME280;4062;49.844;8.120;2023-03-21T04:45:08;99386.19;;;14.01;55.17
8039;BME280;4062;49.844;8.120;2023-03-21T04:47:13;99396.81;;;14.01;54.86
8039;BME280;4062;49.844;8.120;2023-03-21T04:49:25;99389.69;;;14.01;55.08
8039;BME280;4062;49.844;8.120;2023-03-21T04:51:27;99392.34;;;14.01;54.98
8039;BME280;4062;49.844;8.120;2023-03-21T04:53:33;99387.97;;;14.00;55.09
8039;BME280;4062;49.844;8.120;2023-03-21T04:55:39;99384.38;;;14.01;55.14
8039;BME280;4062;49.844;8.120;2023-03-21T04:57:40;99375.56;;;14.01;55.00
8039;BME280;4062;49.844;8.120;2023-03-21T04:59:53;99379.06;;;14.01;55.06
8039;BME280;4062;49.844;8.120;2023-03-21T05:01:56;99389.69;;;14.01;55.02
8039;BME280;4062;49.844;8.120;2023-03-21T05:04:00;99383.53;;;14.01;54.94
8039;BME280;4062;49.844;8.120;2023-03-21T05:06:02;99385.25;;;14.02;54.98
8039;BME280;4062;49.844;8.120;2023-03-21T05:08:04;99385.31;;;14.00;54.87
8039;BME280;4062;49.844;8.120;2023-03-21T05:10:10;99385.25;;;14.02;54.98
8039;BME280;4062;49.844;8.120;2023-03-21T05:12:18;99376.41;;;14.01;55.13
8039;BME280;4062;49.844;8.120;2023-03-21T05:14:27;99378.22;;;14.01;54.90
8039;BME280;4062;49.844;8.120;2023-03-21T05:16:31;99376.41;;;14.01;55.06
8039;BME280;4062;49.844;8.120;2023-03-21T05:18:37;99371.09;;;14.01;55.07
8039;BME280;4062;49.844;8.120;2023-03-21T05:20:45;99376.41;;;14.01;55.12
8039;BME280;4062;49.844;8.120;2023-03-21T05:22:47;99373.75;;;14.01;55.04
8039;BME280;4062;49.844;8.120;2023-03-21T05:24:52;99373.75;;;14.01;54.99
8039;BME280;4062;49.844;8.120;2023-03-21T05:27:23;99368.44;;;14.01;55.00
8039;BME280;4062;49.844;8.120;2023-03-21T05:29:45;99374.63;;;14.02;55.08
8039;BME280;4062;49.844;8.120;2023-03-21T05:32:05;99370.25;;;14.01;55.11
8039;BME280;4062;49.844;8.120;2023-03-21T05:34:06;99372.91;;;14.01;55.05
8039;BME280;4062;49.844;8.120;2023-03-21T05:36:12;99361.38;;;14.00;55.07
8039;BME280;4062;49.844;8.120;2023-03-21T05:38:15;99369.38;;;14.00;55.09
8039;BME280;4062;49.844;8.120;2023-03-21T05:40:27;99368.44;;;14.01;54.88
8039;BME280;4062;49.844;8.120;2023-03-21T05:42:32;99364.03;;;14.00;55.06
8039;BME280;4062;49.844;8.120;2023-03-21T05:44:34;99375.56;;;14.01;55.01
8039;BME280;4062;49.844;8.120;2023-03-21T05:46:39;99364.94;;;14.01;55.01
8039;BME280;4062;49.844;8.120;2023-03-21T05:48:46;99369.38;;;14.00;54.96
8039;BME280;4062;49.844;8.120;2023-03-21T05:50:53;99371.16;;;14.00;55.02
8039;BME280;4062;49.844;8.120;2023-03-21T05:53:01;99373.75;;;14.01;55.04
8039;BME280;4062;49.844;8.120;2023-03-21T05:55:02;99378.22;;;14.01;55.06
8039;BME280;4062;49.844;8.120;2023-03-21T05:57:05;99379.94;;;14.02;55.06
8039;BME280;4062;49.844;8.120;2023-03-21T05:59:23;99371.16;;;14.00;55.02
8039;BME280;4062;49.844;8.120;2023-03-21T06:01:30;99382.66;;;14.00;55.02
8039;BME280;4062;49.844;8.120;2023-03-21T06:03:41;99375.56;;;14.01;55.17
8039;BME280;4062;49.844;8.120;2023-03-21T06:05:56;99378.22;;;14.01;54.95
8039;BME280;4062;49.844;8.120;2023-03-21T06:08:01;99383.53;;;14.01;55.12
8039;BME280;4062;49.844;8.120;2023-03-21T06:10:04;99372.91;;;14.01;55.06
8039;BME280;4062;49.844;8.120;2023-03-21T06:12:09;99374.69;;;14.00;55.06
8039;BME280;4062;49.844;8.120;2023-03-21T06:14:42;99374.69;;;14.00;55.00
8039;BME280;4062;49.844;8.120;2023-03-21T06:16:54;99374.69;;;14.00;55.12
8039;BME280;4062;49.844;8.120;2023-03-21T06:18:59;99371.16;;;14.00;54.99
8039;BME280;4062;49.844;8.120;2023-03-21T06:21:15;99373.81;;;14.00;54.99
8039;BME280;4062;49.844;8.120;2023-03-21T06:23:18;99372.91;;;14.01;55.14
8039;BME280;4062;49.844;8.120;2023-03-21T06:25:19;99374.69;;;14.00;55.04
8039;BME280;4062;49.844;8.120;2023-03-21T06:27:21;99376.41;;;14.01;55.00
8039;BME280;4062;49.844;8.120;2023-03-21T06:29:28;99373.81;;;14.00;55.07
8039;BME280;4062;49.844;8.120;2023-03-21T06:31:33;99386.19;;;14.01;54.99
8039;BME280;4062;49.844;8.120;2023-03-21T06:33:41;99387.97;;;14.00;54.92
8039;BME280;4062;49.844;8.120;2023-03-21T06:35:42;99388.78;;;14.02;55.05
8039;BME280;4062;49.844;8.120;2023-03-21T06:37:44;99384.38;;;14.01;55.11
8039;BME280;4062;49.844;8.120;2023-03-21T06:39:47;99394.16;;;14.01;55.13
8039;BME280;4062;49.844;8.120;2023-03-21T06:41:49;99391.50;;;14.01;55.07
8039;BME280;4062;49.844;8.120;2023-03-21T06:43:51;99388.84;;;14.01;55.11
8039;BME280;4062;49.844;8.120;2023-03-21T06:45:53;99389.69;;;14.01;55.00
8039;BME280;4062;49.844;8.120;2023-03-21T06:47:55;99387.03;;;14.01;55.04
8039;BME280;4062;49.844;8.120;2023-03-21T06:50:19;99386.19;;;14.01;55.10
8039;BME280;4062;49.844;8.120;2023-03-21T06:52:21;99392.34;;;14.01;55.04
8039;BME280;4062;49.844;8.120;2023-03-21T06:54:27;99395.00;;;14.01;55.05
8039;BME280;4062;49.844;8.120;2023-03-21T06:56:39;99389.69;;;14.01;54.99
8039;BME280;4062;49.844;8.120;2023-03-21T06:58:42;99391.44;;;14.02;55.17
8039;BME280;4062;49.844;8.120;2023-03-21T07:00:51;99396.75;;;14.02;55.12
8039;BME280;4062;49.844;8.120;2023-03-21T07:02:53;99395.00;;;14.01;55.06
8039;BME280;4062;49.844;8.120;2023-03-21T07:04:57;99391.44;;;14.02;55.04
8039;BME280;4062;49.844;8.120;2023-03-21T07:07:02;99389.69;;;14.01;54.98
8039;BME280;4062;49.844;8.120;2023-03-21T07:09:04;99396.75;;;14.02;54.99
8039;BME280;4062;49.844;8.120;2023-03-21T07:11:08;99399.41;;;14.02;55.10
8039;BME280;4062;49.844;8.120;2023-03-21T07:13:10;99394.97;;;14.03;55.00
8039;BME280;4062;49.844;8.120;2023-03-21T07:15:41;99397.66;;;14.01;55.01
8039;BME280;4062;49.844;8.120;2023-03-21T07:17:43;99402.06;;;14.02;55.16
8039;BME280;4062;49.844;8.120;2023-03-21T07:19:44;99395.00;;;14.01;55.13
8039;BME280;4062;49.844;8.120;2023-03-21T07:21:46;99399.41;;;14.02;55.04
8039;BME280;4062;49.844;8.120;2023-03-21T07:23:47;99402.94;;;14.03;55.09
8039;BME280;4062;49.844;8.120;2023-03-21T07:25:51;99402.06;;;14.02;55.05
8039;BME280;4062;49.844;8.120;2023-03-21T07:27:52;99402.06;;;14.02;54.93
8039;BME280;4062;49.844;8.120;2023-03-21T07:29:53;99402.94;;;14.03;55.10
8039;BME280;4062;49.844;8.120;2023-03-21T07:31:55;99392.31;;;14.03;55.00
8039;BME280;4062;49.844;8.120;2023-03-21T07:33:57;99394.97;;;14.03;55.09
8039;BME280;4062;49.844;8.120;2023-03-21T07:35:59;99393.22;;;14.02;54.96
8039;BME280;4062;49.844;8.120;2023-03-21T07:38:06;99399.41;;;14.02;55.05
8039;BME280;4062;49.844;8.120;2023-03-21T07:40:09;99396.75;;;14.02;55.01
8039;BME280;4062;49.844;8.120;2023-03-21T07:42:11;99392.31;;;14.03;54.93
8039;BME280;4062;49.844;8.120;2023-03-21T07:44:14;99396.75;;;14.02;55.06
8039;BME280;4062;49.844;8.120;2023-03-21T07:46:15;99395.88;;;14.02;54.90
8039;BME280;4062;49.844;8.120;2023-03-21T07:48:16;99395.81;;;14.03;55.16
8039;BME280;4062;49.844;8.120;2023-03-21T07:50:19;99394.97;;;14.03;55.02
8039;BME280;4062;49.844;8.120;2023-03-21T07:52:20;99395.81;;;14.03;55.15
8039;BME280;4062;49.844;8.120;2023-03-21T07:54:21;99391.44;;;14.02;55.12
8039;BME280;4062;49.844;8.120;2023-03-21T07:56:23;99397.63;;;14.03;55.05
8039;BME280;4062;49.844;8.120;2023-03-21T07:58:24;99397.63;;;14.03;55.02
8039;BME280;4062;49.844;8.120;2023-03-21T08:00:27;99405.53;;;14.04;55.13
8039;BME280;4062;49.844;8.120;2023-03-21T08:02:28;99399.34;;;14.04;55.03
8039;BME280;4062;49.844;8.120;2023-03-21T08:04:30;99402.88;;;14.04;55.23
8039;BME280;4062;49.844;8.120;2023-03-21T08:06:32;99397.56;;;14.04;55.13
8039;BME280;4062;49.844;8.120;2023-03-21T08:08:33;99400.22;;;14.04;55.02
8039;BME280;4062;49.844;8.120;2023-03-21T08:10:34;99402.03;;;14.04;55.15
8039;BME280;4062;49.844;8.120;2023-03-21T08:12:36;99400.22;;;14.04;55.16
8039;BME280;4062;49.844;8.120;2023-03-21T08:14:38;99397.56;;;14.04;55.06
8039;BME280;4062;49.844;8.120;2023-03-21T08:16:39;99395.81;;;14.03;55.02
8039;BME280;4062;49.844;8.120;2023-03-21T08:18:40;99400.22;;;14.04;55.23
8039;BME280;4062;49.844;8.120;2023-03-21T08:20:42;99397.56;;;14.04;55.01
8039;BME280;4062;49.844;8.120;2023-03-21T08:22:44;99396.69;;;14.04;55.10
8039;BME280;4062;49.844;8.120;2023-03-21T08:24:45;99390.50;;;14.03;55.06
8039;BME280;4062;49.844;8.120;2023-03-21T08:26:47;99393.16;;;14.03;55.11
8039;BME280;4062;49.844;8.120;2023-03-21T08:28:48;99394.03;;;14.04;55.08
8039;BME280;4062;49.844;8.120;2023-03-21T08:30:50;99394.91;;;14.04;55.10
8039;BME280;4062;49.844;8.120;2023-03-21T08:32:55;99394.03;;;14.04;55.08
8039;BME280;4062;49.844;8.120;2023-03-21T08:35:01;99398.47;;;14.03;55.09
8039;BME280;4062;49.844;8.120;2023-03-21T08:37:03;99405.53;;;14.04;55.09
8039;BME280;4062;49.844;8.120;2023-03-21T08:39:05;99402.88;;;14.04;55.08
8039;BME280;4062;49.844;8.120;2023-03-21T08:41:07;99404.66;;;14.04;55.18
8039;BME280;4062;49.844;8.120;2023-03-21T08:43:08;99408.19;;;14.04;55.12
8039;BME280;4062;49.844;8.120;2023-03-21T08:45:10;99400.22;;;14.04;55.17
8039;BME280;4062;49.844;8.120;2023-03-21T08:47:12;99406.44;;;14.03;55.02
8039;BME280;4062;49.844;8.120;2023-03-21T08:49:13;99402.03;;;14.04;55.18
8039;BME280;4062;49.844;8.120;2023-03-21T08:51:15;99405.53;;;14.04;55.12
8039;BME280;4062;49.844;8.120;2023-03-21T08:53:16;99409.09;;;14.03;55.18
8039;BME280;4062;49.844;8.120;2023-03-21T08:55:18;99410.84;;;14.04;55.15
8039;BME280;4062;49.844;8.120;2023-03-21T08:57:19;99404.66;;;14.04;55.00
8039;BME280;4062;49.844;8.120;2023-03-21T08:59:21;99415.28;;;14.04;55.05
8039;BME280;4062;49.844;8.120;2023-03-21T09:01:22;99417.94;;;14.04;55.06
8039;BME280;4062;49.844;8.120;2023-03-21T09:03:23;99417.06;;;14.03;55.23
8039;BME280;4062;49.844;8.120;2023-03-21T09:05:27;99413.50;;;14.04;55.04
8039;BME280;4062;49.844;8.120;2023-03-21T09:07:28;99415.28;;;14.04;55.08
8039;BME280;4062;49.844;8.120;2023-03-21T09:09:33;99413.50;;;14.04;55.22
8039;BME280;4062;49.844;8.120;2023-03-21T09:11:35;99414.41;;;14.03;55.00
8039;BME280;4062;49.844;8.120;2023-03-21T09:13:36;99409.09;;;14.03;55.16
8039;BME280;4062;49.844;8.120;2023-03-21T09:15:37;99405.59;;;14.03;55.06
8039;BME280;4062;49.844;8.120;2023-03-21T09:17:40;99404.66;;;14.04;54.99
8039;BME280;4062;49.844;8.120;2023-03-21T09:19:44;99408.19;;;14.04;54.99
8039;BME280;4062;49.844;8.120;2023-03-21T09:21:46;99410.84;;;14.04;54.99
8039;BME280;4062;49.844;8.120;2023-03-21T09:23:49;99409.97;;;14.04;55.11
8039;BME280;4062;49.844;8.120;2023-03-21T09:25:52;99413.50;;;14.04;55.11
8039;BME280;4062;49.844;8.120;2023-03-21T09:27:53;99398.47;;;14.03;55.04
8039;BME280;4062;49.844;8.120;2023-03-21T09:29:55;99409.97;;;14.04;55.04
8039;BME280;4062;49.844;8.120;2023-03-21T09:31:57;99405.53;;;14.04;54.72
8039;BME280;4062;49.844;8.120;2023-03-21T09:34:01;99408.19;;;14.04;55.03
8039;BME280;4062;49.844;8.120;2023-03-21T09:36:04;99406.44;;;14.03;55.15
8039;BME280;4062;49.844;8.120;2023-03-21T09:38:06;99405.53;;;14.04;55.11
8039;BME280;4062;49.844;8.120;2023-03-21T09:40:20;99405.53;;;14.04;54.99
8039;BME280;4062;49.844;8.120;2023-03-21T09:42:48;99402.03;;;14.04;55.12
8039;BME280;4062;49.844;8.120;2023-03-21T09:45:11;99405.53;;;14.04;55.06
8039;BME280;4062;49.844;8.120;2023-03-21T09:47:27;99407.31;;;14.04;55.11
8039;BME280;4062;49.844;8.120;2023-03-21T09:49:45;99410.84;;;14.04;55.03
8039;BME280;4062;49.844;8.120;2023-03-21T09:51:50;99408.19;;;14.04;55.05
8039;BME280;4062;49.844;8.120;2023-03-21T09:53:55;99401.13;;;14.03;55.04
8039;BME280;4062;49.844;8.120;2023-03-21T09:55:57;99403.72;;;14.05;55.23
8039;BME280;4062;49.844;8.120;2023-03-21T09:58:12;99409.03;;;14.05;55.02
8039;BME280;4062;49.844;8.120;2023-03-21T10:00:30;99408.19;;;14.04;55.10
8039;BME280;4062;49.844;8.120;2023-03-21T10:02:52;99405.53;;;14.04;55.06
8039;BME280;4062;49.844;8.120;2023-03-21T10:04:55;99408.19;;;14.04;55.17
8039;BME280;4062;49.844;8.120;2023-03-21T10:07:00;99409.09;;;14.03;55.06
8039;BME280;4062;49.844;8.120;2023-03-21T10:09:05;99403.78;;;14.03;55.03
8039;BME280;4062;49.844;8.120;2023-03-21T10:11:24;99411.69;;;14.05;55.08
8039;BME280;4062;49.844;8.120;2023-03-21T10:13:34;99405.53;;;14.04;55.11
8039;BME280;4062;49.844;8.120;2023-03-21T10:15:39;99406.38;;;14.05;55.11
8039;BME280;4062;49.844;8.120;2023-03-21T10:17:48;99401.06;;;14.05;55.08
8039;BME280;4062;49.844;8.120;2023-03-21T10:20:12;99400.28;;;14.03;54.98
8039;BME280;4062;49.844;8.120;2023-03-21T10:22:15;99405.53;;;14.04;55.10
8039;BME280;4062;49.844;8.120;2023-03-21T10:24:27;99402.88;;;14.04;55.04
8039;BME280;4062;49.844;8.120;2023-03-21T10:26:29;99401.13;;;14.03;55.18
8039;BME280;4062;49.844;8.120;2023-03-21T10:28:36;99406.38;;;14.05;55.11
8039;BME280;4062;49.844;8.120;2023-03-21T10:32:44;99410.84;;;14.04;54.99
8039;BME280;4062;49.844;8.120;2023-03-21T10:34:52;99405.53;;;14.04;55.13
8039;BME280;4062;49.844;8.120;2023-03-21T10:36:55;99408.19;;;14.04;55.16
8039;BME280;4062;49.844;8.120;2023-03-21T10:39:05;99405.53;;;14.04;55.12
8039;BME280;4062;49.844;8.120;2023-03-21T10:41:08;99402.88;;;14.04;55.04
8039;BME280;4062;49.844;8.120;2023-03-21T10:43:39;99400.22;;;14.04;54.99
8039;BME280;4062;49.844;8.120;2023-03-21T10:45:41;99398.41;;;14.05;55.04
8039;BME280;4062;49.844;8.120;2023-03-21T10:47:42;99394.91;;;14.04;55.05
8039;BME280;4062;49.844;8.120;2023-03-21T10:49:46;99402.88;;;14.04;55.04
8039;BME280;4062;49.844;8.120;2023-03-21T10:51:55;99397.56;;;14.04;55.11
8039;BME280;4062;49.844;8.120;2023-03-21T10:54:11;99395.75;;;14.05;55.14
8039;BME280;4062;49.844;8.120;2023-03-21T10:56:14;99391.38;;;14.04;55.03
8039;BME280;4062;49.844;8.120;2023-03-21T10:58:18;99386.94;;;14.04;55.13
8039;BME280;4062;49.844;8.120;2023-03-21T11:00:33;99393.09;;;14.05;55.09
8039;BME280;4062;49.844;8.120;2023-03-21T11:02:37;99386.94;;;14.04;55.09
8039;BME280;4062;49.844;8.120;2023-03-21T11:04:38;99384.28;;;14.04;55.11
8039;BME280;4062;49.844;8.120;2023-03-21T11:06:42;99390.44;;;14.05;55.21
8039;BME280;4062;49.844;8.120;2023-03-21T11:08:48;99379.81;;;14.05;55.17
8039;BME280;4062;49.844;8.120;2023-03-21T11:13:06;99383.34;;;14.05;55.03
8039;BME280;4062;49.844;8.120;2023-03-21T11:15:37;99373.66;;;14.04;55.04
8039;BME280;4062;49.844;8.120;2023-03-21T11:17:41;99377.16;;;14.05;55.05
8039;BME280;4062;49.844;8.120;2023-03-21T11:21:50;99369.19;;;14.05;55.07
8039;BME280;4062;49.844;8.120;2023-03-21T11:23:54;99373.66;;;14.04;55.16
8039;BME280;4062;49.844;8.120;2023-03-21T11:25:59;99370.91;;;14.06;55.19
8039;BME280;4062;49.844;8.120;2023-03-21T11:28:05;99367.41;;;14.05;55.11
8039;BME280;4062;49.844;8.120;2023-03-21T11:30:20;99367.41;;;14.05;55.00
8039;BME280;4062;49.844;8.120;2023-03-21T11:32:32;99363.88;;;14.05;55.10
8039;BME280;4062;49.844;8.120;2023-03-21T11:35:40;99367.41;;;14.05;55.04
8039;BME280;4062;49.844;8.120;2023-03-21T11:37:27;99361.22;;;14.05;55.08
8039;BME280;4062;49.844;8.120;2023-03-21T11:39:36;99353.25;;;14.05;55.12
8039;BME280;4062;49.844;8.120;2023-03-21T11:41:42;99363.88;;;14.05;55.10
8039;BME280;4062;49.844;8.120;2023-03-21T11:43:51;99367.41;;;14.05;54.98
8039;BME280;4062;49.844;8.120;2023-03-21T11:46:06;99360.28;;;14.06;55.17
8039;BME280;4062;49.844;8.120;2023-03-21T11:48:12;99353.25;;;14.05;55.17
8039;BME280;4062;49.844;8.120;2023-03-21T11:52:40;99348.81;;;14.05;55.15
8039;BME280;4062;49.844;8.120;2023-03-21T11:55:23;99348.81;;;14.05;55.02
8039;BME280;4062;49.844;8.120;2023-03-21T12:00:03;99341.69;;;14.06;55.18
8039;BME280;4062;49.844;8.120;2023-03-21T12:02:33;99339.03;;;14.06;55.15
8039;BME280;4062;49.844;8.120;2023-03-21T12:05:10;99339.03;;;14.06;55.14
8039;BME280;4062;49.844;8.120;2023-03-21T12:10:03;99338.19;;;14.05;55.11
8039;BME280;4062;49.844;8.120;2023-03-21T12:20:58;99326.69;;;14.05;55.17
8039;BME280;4062;49.844;8.120;2023-03-21T12:23:43;99317.78;;;14.06;55.12
8039;BME280;4062;49.844;8.120;2023-03-21T12:26:07;99308.97;;;14.05;55.03
8039;BME280;4062;49.844;8.120;2023-03-21T12:30:55;99308.97;;;14.05;55.19